This is the latest recevied weather packets stored in our database for station/object K7YVO. If no packets are shown the sender has not sent any weather packets the latest 10 day(s).
| Time | Temp. | Humidity | Pressure | Rain* | Wind** | Luminosity | Snow |
|---|---|---|---|---|---|---|---|
| 1777751602 | 13.89° C | 79% | 1016.9 hPa | 0 mm | - | 499 W/m² | - |
| 1777750389 | 13.89° C | 80% | 1016.9 hPa | 0 mm | - | 457 W/m² | - |
| 1777748873 | 13.33° C | 82% | 1017.2 hPa | 0 mm | - | 362 W/m² | - |
| 1777743705 | 12.22° C | 85% | 1017.8 hPa | 0 mm | - | 180 W/m² | - |
| 1777741584 | 11.11° C | 88% | 1018.2 hPa | 0 mm | - | 125 W/m² | - |
| 1777740977 | 10.56° C | 89% | 1017.9 hPa | 0 mm | - | 135 W/m² | - |
| 1777740370 | 10° C | 91% | 1018 hPa | 0 mm | - | 123 W/m² | - |
| 1777739763 | 10° C | 92% | 1017.5 hPa | 0 mm | - | 120 W/m² | - |
| 1777739460 | 10° C | 92% | 1017.6 hPa | 0 mm | - | 103 W/m² | - |
| 1777739156 | 10° C | 92% | 1017.7 hPa | 0 mm | - | 94 W/m² | - |
| 1777738854 | 10° C | 93% | 1017.8 hPa | 0 mm | - | 95 W/m² | - |
| 1777738550 | 10° C | 93% | 1018 hPa | 0 mm | - | 72 W/m² | - |
| 1777738248 | 10° C | 94% | 1017.8 hPa | 0 mm | - | 63 W/m² | - |
| 1777737946 | 10° C | 94% | 1017.9 hPa | 0 mm | - | 59 W/m² | - |
| 1777737644 | 10° C | 94% | 1017.8 hPa | 0 mm | - | 57 W/m² | - |
| 1777737343 | 10° C | 94% | 1018 hPa | 0 mm | - | 64 W/m² | - |
| 1777737039 | 9.44° C | 94% | 1018 hPa | 0 mm | - | 92 W/m² | - |
| 1777736107 | 9.44° C | 95% | 1017.9 hPa | 0 mm | - | 67 W/m² | - |
| 1777735804 | 9.44° C | 96% | 1017.6 hPa | 0 mm | - | 59 W/m² | - |
| 1777735501 | 9.44° C | 96% | 1017.8 hPa | 0 mm | - | 57 W/m² | - |
| 1777735199 | 9.44° C | 96% | 1017.9 hPa | 0 mm | - | 57 W/m² | - |
| 1777734896 | 9.44° C | 96% | 1018.1 hPa | 0 mm | - | 73 W/m² | - |
| 1777734593 | 9.44° C | 96% | 1017.8 hPa | 0 mm | - | 64 W/m² | - |
| 1777734290 | 9.44° C | 96% | 1018 hPa | 0 mm | - | 53 W/m² | - |
| 1777733986 | 9.44° C | 96% | 1018 hPa | 0 mm | - | 47 W/m² | - |
* Rain latest hour (hover to see other rain measurements)
** Current wind speed in m/s (hover to see current wind gust speed)